createdAt,value
2023-04-11T00:00:48.788Z,8.40
2023-04-11T00:03:23.102Z,8.30
2023-04-11T00:05:56.276Z,11.00
2023-04-11T00:08:29.082Z,10.30
2023-04-11T00:11:02.300Z,8.00
2023-04-11T00:13:35.502Z,9.60
2023-04-11T00:16:10.459Z,8.40
2023-04-11T00:18:45.556Z,6.60
2023-04-11T00:21:18.308Z,7.70
2023-04-11T00:23:51.016Z,9.00
2023-04-11T00:26:24.056Z,6.10
2023-04-11T00:28:57.058Z,10.00
2023-04-11T00:31:30.014Z,8.40
2023-04-11T00:34:02.821Z,8.00
2023-04-11T00:36:36.978Z,8.30
2023-04-11T00:39:10.173Z,8.50
2023-04-11T00:41:43.536Z,8.70
2023-04-11T00:44:16.193Z,7.60
2023-04-11T00:46:49.810Z,7.80
2023-04-11T00:49:22.452Z,8.60
2023-04-11T00:51:57.222Z,9.10
2023-04-11T00:54:31.376Z,10.50
2023-04-11T00:57:05.137Z,9.10
2023-04-11T00:59:38.070Z,10.40
2023-04-11T01:02:11.159Z,8.20
2023-04-11T01:04:44.109Z,7.70
2023-04-11T01:07:19.303Z,9.80
2023-04-11T01:09:53.073Z,10.40
2023-04-11T01:14:57.693Z,9.50
2023-04-11T01:17:30.731Z,10.20
2023-04-11T01:20:07.670Z,14.20
2023-04-11T01:22:42.695Z,12.80
2023-04-11T01:25:16.750Z,16.60
2023-04-11T01:27:49.974Z,10.00
2023-04-11T01:30:22.595Z,9.60
2023-04-11T01:32:55.165Z,9.90
2023-04-11T01:35:27.915Z,9.20
2023-04-11T01:38:00.422Z,11.10
2023-04-11T01:40:34.136Z,9.40
2023-04-11T01:45:38.113Z,9.10
2023-04-11T01:48:11.861Z,8.70
2023-04-11T01:50:44.752Z,11.30
2023-04-11T01:53:17.259Z,10.40
2023-04-11T01:58:21.620Z,11.20
2023-04-11T02:00:54.650Z,12.70
2023-04-11T02:03:27.327Z,12.40
2023-04-11T02:06:01.691Z,14.50
2023-04-11T02:08:35.064Z,14.40
2023-04-11T02:11:09.273Z,12.20
2023-04-11T02:13:41.914Z,11.30
2023-04-11T02:16:16.327Z,12.60
2023-04-11T02:18:49.211Z,13.10
2023-04-11T02:21:21.907Z,12.00
2023-04-11T02:23:54.564Z,12.30
2023-04-11T02:26:27.866Z,14.70
2023-04-11T02:29:02.046Z,11.00
2023-04-11T02:31:34.757Z,10.60
2023-04-11T02:34:07.387Z,12.30
2023-04-11T02:36:42.392Z,11.70
2023-04-11T02:39:15.233Z,11.80
2023-04-11T02:41:48.271Z,12.50
2023-04-11T02:44:22.790Z,12.70
2023-04-11T02:46:56.347Z,11.60
2023-04-11T02:49:30.338Z,11.80
2023-04-11T02:52:03.127Z,12.20
2023-04-11T02:54:35.822Z,9.70
2023-04-11T02:57:08.661Z,11.70
2023-04-11T02:59:41.698Z,11.90
2023-04-11T03:04:46.977Z,12.30
2023-04-11T03:07:22.280Z,10.00
2023-04-11T03:09:54.810Z,12.20
2023-04-11T03:12:29.038Z,11.50
2023-04-11T03:15:06.812Z,11.80
2023-04-11T03:17:39.396Z,11.70
2023-04-11T03:20:14.469Z,11.70
2023-04-11T03:22:51.052Z,14.30
2023-04-11T03:25:24.675Z,11.70
2023-04-11T03:27:57.794Z,11.70
2023-04-11T03:30:30.395Z,11.20
2023-04-11T03:33:03.173Z,12.20
2023-04-11T03:35:36.441Z,12.00
2023-04-11T03:38:09.076Z,9.60
2023-04-11T03:40:42.589Z,13.10
2023-04-11T03:43:18.866Z,12.10
2023-04-11T03:45:52.129Z,14.30
2023-04-11T03:48:47.510Z,13.70
2023-04-11T03:51:21.396Z,24.30
2023-04-11T03:54:06.773Z,18.80
2023-04-11T03:56:42.486Z,14.60
2023-04-11T03:59:22.626Z,15.00
2023-04-11T04:02:02.406Z,11.80
2023-04-11T04:07:13.932Z,13.00
2023-04-11T04:09:48.554Z,20.50
2023-04-11T04:12:22.464Z,19.00
2023-04-11T04:15:11.681Z,18.00
2023-04-11T04:17:45.037Z,16.40
2023-04-11T04:20:22.348Z,14.40
2023-04-11T04:23:00.749Z,17.60
2023-04-11T04:28:20.715Z,16.90
2023-04-11T04:30:54.549Z,15.50
2023-04-11T04:33:29.121Z,19.00
2023-04-11T04:36:04.620Z,18.00
2023-04-11T04:38:38.788Z,16.90
2023-04-11T04:41:16.526Z,18.60
2023-04-11T04:43:58.713Z,18.20
2023-04-11T04:46:49.929Z,19.10
2023-04-11T04:49:22.451Z,19.30
2023-04-11T04:51:55.043Z,19.50
2023-04-11T04:54:28.093Z,18.00
2023-04-11T04:59:32.347Z,18.70
2023-04-11T05:02:12.861Z,16.30
2023-04-11T05:04:47.442Z,18.70
2023-04-11T05:07:21.278Z,23.00
2023-04-11T05:09:56.382Z,17.00
2023-04-11T05:12:30.612Z,18.10
2023-04-11T05:15:11.989Z,18.10
2023-04-11T05:17:46.568Z,17.20
2023-04-11T05:20:20.541Z,26.70
2023-04-11T05:22:53.803Z,19.90
2023-04-11T05:25:27.666Z,44.50
2023-04-11T05:28:02.398Z,27.00
2023-04-11T05:30:35.184Z,18.80
2023-04-11T05:33:13.165Z,20.30
2023-04-11T05:35:47.672Z,21.00
2023-04-11T05:38:20.769Z,18.90
2023-04-11T05:40:55.149Z,20.20
2023-04-11T05:43:27.895Z,21.80
2023-04-11T05:46:00.853Z,19.60
2023-04-11T05:48:36.230Z,18.70
2023-04-11T05:51:09.144Z,17.70
2023-04-11T05:53:41.573Z,21.10
2023-04-11T05:56:14.582Z,22.10
2023-04-11T05:58:47.655Z,18.60
2023-04-11T06:01:20.172Z,20.50
2023-04-11T06:03:53.107Z,19.20
2023-04-11T06:06:26.896Z,17.80
2023-04-11T06:11:30.140Z,18.50
2023-04-11T06:14:04.781Z,27.10
2023-04-11T06:16:39.211Z,33.20
2023-04-11T06:19:12.834Z,55.80
2023-04-11T06:21:46.242Z,62.80
2023-04-11T06:24:19.796Z,55.00
2023-04-11T06:26:52.451Z,52.50
2023-04-11T06:29:25.219Z,55.00
2023-04-11T06:32:00.427Z,62.30
2023-04-11T06:34:33.106Z,54.60
2023-04-11T06:37:06.843Z,34.90
2023-04-11T06:39:40.199Z,89.40
2023-04-11T06:42:13.392Z,104.10
2023-04-11T06:44:50.804Z,86.10
2023-04-11T06:47:26.112Z,40.70
2023-04-11T06:49:59.909Z,46.50
2023-04-11T06:52:32.628Z,41.70
2023-04-11T06:55:07.694Z,58.90
2023-04-11T06:57:40.472Z,38.10
2023-04-11T07:00:14.955Z,45.40
2023-04-11T07:02:48.442Z,45.60
2023-04-11T07:07:52.075Z,52.60
2023-04-11T07:10:25.472Z,40.80
2023-04-11T07:12:58.333Z,51.20
2023-04-11T07:15:31.104Z,87.90
2023-04-11T07:18:05.954Z,71.00
2023-04-11T07:20:39.133Z,44.40
2023-04-11T07:23:11.702Z,62.70
2023-04-11T07:25:45.420Z,75.20
2023-04-11T07:30:48.875Z,33.10
2023-04-11T07:33:22.010Z,53.60
2023-04-11T07:35:54.785Z,34.40
2023-04-11T07:38:30.528Z,37.10
2023-04-11T07:41:10.505Z,28.90
2023-04-11T07:43:43.360Z,27.00
2023-04-11T07:46:16.980Z,26.20
2023-04-11T07:51:21.042Z,31.20
2023-04-11T07:53:54.757Z,22.50
2023-04-11T07:56:27.579Z,23.60
2023-04-11T07:59:01.824Z,25.70
2023-04-11T08:01:34.770Z,23.10
2023-04-11T08:04:08.278Z,20.40
2023-04-11T08:06:41.516Z,20.50
2023-04-11T08:09:14.289Z,19.90
2023-04-11T08:11:46.974Z,17.10
2023-04-11T08:14:19.700Z,18.60
2023-04-11T08:16:53.186Z,19.60
2023-04-11T08:19:26.226Z,17.50
2023-04-11T08:21:59.130Z,18.50
2023-04-11T08:24:31.732Z,21.10
2023-04-11T08:27:04.393Z,22.30
2023-04-11T08:29:37.033Z,21.80
2023-04-11T08:32:10.448Z,23.30
2023-04-11T08:34:43.368Z,21.10
2023-04-11T08:37:16.617Z,26.60
2023-04-11T08:39:49.644Z,21.40
2023-04-11T08:42:30.081Z,19.60
2023-04-11T08:45:04.479Z,22.00
2023-04-11T08:47:37.777Z,21.10
2023-04-11T08:50:13.980Z,19.40
2023-04-11T08:52:48.665Z,18.90
2023-04-11T08:55:21.454Z,18.80
2023-04-11T08:57:56.988Z,18.80
2023-04-11T09:00:32.821Z,18.20
2023-04-11T09:03:07.319Z,19.30
2023-04-11T09:05:41.974Z,20.50
2023-04-11T09:08:16.270Z,20.70
2023-04-11T09:10:49.870Z,20.10
2023-04-11T09:13:27.610Z,19.30
2023-04-11T09:16:12.436Z,19.50
2023-04-11T09:18:48.269Z,21.30
2023-04-11T09:21:23.386Z,22.10
2023-04-11T09:23:56.833Z,22.30
2023-04-11T09:26:33.066Z,21.90
2023-04-11T09:29:06.211Z,16.90
2023-04-11T09:31:46.776Z,16.30
2023-04-11T09:34:28.360Z,16.60
2023-04-11T09:37:04.717Z,14.70
2023-04-11T09:39:37.798Z,14.10
2023-04-11T09:42:26.800Z,15.40
2023-04-11T09:44:59.489Z,15.00
2023-04-11T09:47:36.017Z,15.00
2023-04-11T09:50:10.040Z,15.50
2023-04-11T09:52:44.705Z,15.50
2023-04-11T09:55:20.095Z,17.30
2023-04-11T09:57:54.546Z,16.60
2023-04-11T10:00:30.501Z,18.90
2023-04-11T10:03:03.245Z,21.70
2023-04-11T10:05:37.176Z,20.10
2023-04-11T10:08:13.744Z,29.30
2023-04-11T10:10:46.964Z,31.20
2023-04-11T10:13:45.162Z,27.20
2023-04-11T10:16:19.844Z,27.10
2023-04-11T10:19:28.649Z,23.90
2023-04-11T10:22:01.469Z,25.00
2023-04-11T10:24:35.010Z,24.00
2023-04-11T10:27:08.622Z,22.60
2023-04-11T10:29:54.627Z,21.70
2023-04-11T10:32:27.866Z,24.70
2023-04-11T10:35:27.470Z,23.20
2023-04-11T10:38:00.217Z,23.30
2023-04-11T10:40:33.252Z,22.20
2023-04-11T10:43:23.243Z,21.20
2023-04-11T10:46:20.824Z,20.40
2023-04-11T10:49:04.812Z,18.20
2023-04-11T10:54:25.856Z,21.00
2023-04-11T10:57:01.160Z,21.10
2023-04-11T11:00:14.113Z,16.70
2023-04-11T11:02:49.846Z,15.70
2023-04-11T11:05:24.404Z,16.40
2023-04-11T11:07:57.600Z,16.20
2023-04-11T11:10:44.629Z,13.40
2023-04-11T11:13:19.181Z,14.50
2023-04-11T11:15:53.089Z,14.00
2023-04-11T11:18:25.879Z,14.50
2023-04-11T11:21:00.194Z,13.20
2023-04-11T11:23:33.075Z,12.40
2023-04-11T11:26:06.578Z,11.70
2023-04-11T11:28:49.551Z,13.10
2023-04-11T11:31:22.508Z,12.70
2023-04-11T11:33:58.283Z,11.40
2023-04-11T11:36:41.313Z,9.50
2023-04-11T11:39:16.159Z,8.50
2023-04-11T11:41:48.938Z,8.70
2023-04-11T11:44:28.922Z,9.90
2023-04-11T11:47:09.930Z,11.00
2023-04-11T11:49:50.127Z,11.80
2023-04-11T11:52:40.236Z,10.10
2023-04-11T11:55:36.834Z,10.90
2023-04-11T11:58:09.711Z,9.10
2023-04-11T12:00:44.021Z,10.10
2023-04-11T12:03:22.882Z,9.30
2023-04-11T12:05:58.692Z,8.20
2023-04-11T12:08:35.084Z,6.60
2023-04-11T12:11:16.266Z,6.50
2023-04-11T12:13:53.546Z,7.70
2023-04-11T12:16:26.929Z,7.20
2023-04-11T12:21:32.110Z,7.40
2023-04-11T12:24:04.736Z,6.80
2023-04-11T12:26:40.155Z,7.80
2023-04-11T12:29:22.448Z,6.70
2023-04-11T12:31:57.182Z,8.50
2023-04-11T12:34:30.036Z,9.20
2023-04-11T12:37:05.468Z,9.10
2023-04-11T12:39:38.716Z,8.50
2023-04-11T12:42:11.876Z,8.70
2023-04-11T12:44:46.701Z,10.00
2023-04-11T12:47:19.599Z,9.00
2023-04-11T12:49:52.668Z,10.80
2023-04-11T12:52:26.301Z,8.70
2023-04-11T12:54:59.303Z,9.50
2023-04-11T12:57:32.481Z,8.80
2023-04-11T13:00:09.574Z,8.30
2023-04-11T13:02:45.058Z,8.20
2023-04-11T13:05:20.730Z,8.90
2023-04-11T13:07:54.252Z,9.10
2023-04-11T13:13:00.632Z,10.60
2023-04-11T13:15:38.321Z,9.20
2023-04-11T13:18:11.195Z,9.70
2023-04-11T13:20:43.928Z,8.40
2023-04-11T13:23:17.358Z,9.10
2023-04-11T13:25:50.135Z,8.60
2023-04-11T13:28:24.286Z,8.60
2023-04-11T13:30:56.879Z,9.40
2023-04-11T13:33:30.193Z,9.00
2023-04-11T13:36:06.667Z,8.80
2023-04-11T13:38:41.611Z,7.80
2023-04-11T13:41:25.259Z,8.40
2023-04-11T13:44:16.904Z,8.50
2023-04-11T13:46:54.712Z,8.70
2023-04-11T13:53:12.680Z,9.00
2023-04-11T13:56:09.324Z,7.10
2023-04-11T13:58:47.854Z,8.40
2023-04-11T14:01:23.648Z,7.80
2023-04-11T14:03:56.911Z,7.70
2023-04-11T14:06:30.177Z,8.20
2023-04-11T14:09:04.887Z,9.10
2023-04-11T14:11:39.169Z,7.40
2023-04-11T14:14:15.405Z,8.30
2023-04-11T14:16:48.849Z,7.70
2023-04-11T14:19:25.160Z,7.90
2023-04-11T14:21:58.833Z,8.40
2023-04-11T14:24:32.868Z,8.20
2023-04-11T14:27:06.882Z,7.80
2023-04-11T14:29:39.676Z,7.20
2023-04-11T14:32:15.509Z,8.40
2023-04-11T14:34:49.332Z,7.30
2023-04-11T14:37:22.610Z,7.80
2023-04-11T14:39:55.328Z,6.40
2023-04-11T14:42:28.034Z,7.00
2023-04-11T14:45:00.607Z,6.50
2023-04-11T14:47:37.308Z,7.40
2023-04-11T14:50:11.562Z,7.30
2023-04-11T14:52:44.368Z,6.40
2023-04-11T14:55:17.080Z,6.50
2023-04-11T14:57:54.720Z,7.10
2023-04-11T15:00:28.991Z,6.60
2023-04-11T15:03:01.680Z,7.10
2023-04-11T15:05:34.470Z,6.40
2023-04-11T15:08:08.549Z,6.50
2023-04-11T15:10:41.170Z,7.00
2023-04-11T15:13:13.832Z,7.30
2023-04-11T15:15:47.058Z,6.90
2023-04-11T15:18:28.271Z,7.10
2023-04-11T15:21:07.671Z,6.80
2023-04-11T15:23:45.212Z,7.40
2023-04-11T15:26:33.366Z,6.70
2023-04-11T15:29:14.449Z,7.10
2023-04-11T15:31:47.168Z,6.80
2023-04-11T15:34:19.704Z,6.30
2023-04-11T15:36:53.297Z,7.20
2023-04-11T15:39:27.857Z,6.30
2023-04-11T15:42:01.440Z,6.30
2023-04-11T15:44:34.253Z,6.60
2023-04-11T15:47:08.474Z,6.30
2023-04-11T15:49:41.437Z,7.00
2023-04-11T15:52:17.303Z,6.80
2023-04-11T15:54:49.978Z,6.10
2023-04-11T15:57:27.910Z,6.90
2023-04-11T16:00:09.485Z,6.60
2023-04-11T16:02:49.843Z,7.20
2023-04-11T16:05:29.534Z,6.50
2023-04-11T16:08:07.563Z,8.20
2023-04-11T16:10:46.635Z,7.10
2023-04-11T16:13:26.182Z,6.70
2023-04-11T16:16:01.247Z,5.60
2023-04-11T16:18:37.200Z,6.60
2023-04-11T16:21:19.098Z,5.00
2023-04-11T16:23:59.882Z,5.50
2023-04-11T16:26:37.603Z,5.90
2023-04-11T16:29:11.324Z,7.40
2023-04-11T16:31:44.499Z,6.90
2023-04-11T16:34:17.347Z,7.30
2023-04-11T16:36:50.353Z,7.30
2023-04-11T16:39:23.086Z,8.40
2023-04-11T16:41:56.662Z,6.90
2023-04-11T16:44:32.075Z,6.90
2023-04-11T16:47:05.742Z,6.20
2023-04-11T16:49:40.853Z,6.60
2023-04-11T16:52:17.485Z,7.80
2023-04-11T16:57:20.887Z,7.50
2023-04-11T16:59:56.097Z,7.40
2023-04-11T17:02:30.952Z,6.60
2023-04-11T17:08:29.809Z,7.60
2023-04-11T17:11:11.862Z,8.40
2023-04-11T17:13:46.611Z,8.50
2023-04-11T17:16:39.059Z,10.50
2023-04-11T17:23:43.364Z,24.70
2023-04-11T17:27:23.714Z,20.70
2023-04-11T17:30:49.867Z,19.80
2023-04-11T17:34:29.776Z,26.40
2023-04-11T17:38:04.556Z,28.50
2023-04-11T17:41:43.686Z,28.20
2023-04-11T17:45:25.389Z,29.70
2023-04-11T17:56:40.313Z,31.50
2023-04-11T18:00:31.111Z,31.70
2023-04-11T18:04:05.460Z,29.70
2023-04-11T18:08:01.528Z,26.20
2023-04-11T18:22:32.457Z,21.30
2023-04-11T18:37:27.645Z,18.10
2023-04-11T19:14:58.991Z,12.70
2023-04-11T19:18:41.618Z,10.80
2023-04-11T19:25:55.191Z,8.00
2023-04-11T19:28:36.642Z,6.10
2023-04-11T19:31:14.596Z,6.90
2023-04-11T19:33:50.063Z,5.70
2023-04-11T19:36:37.551Z,6.60
2023-04-11T19:39:13.929Z,4.50
2023-04-11T19:41:59.239Z,4.30
2023-04-11T19:44:35.520Z,4.40
2023-04-11T19:47:12.131Z,3.70
2023-04-11T19:49:49.939Z,5.50
2023-04-11T19:52:24.896Z,3.50
2023-04-11T19:54:59.995Z,3.60
2023-04-11T19:57:37.122Z,4.30
2023-04-11T20:00:18.495Z,4.20
2023-04-11T20:03:00.044Z,4.40
2023-04-11T20:05:37.233Z,4.00
2023-04-11T20:08:10.748Z,4.00
2023-04-11T20:10:44.166Z,5.50
2023-04-11T20:13:18.643Z,4.20
2023-04-11T20:15:51.365Z,4.60
2023-04-11T20:18:25.134Z,5.20
2023-04-11T20:20:57.692Z,3.80
2023-04-11T20:23:33.914Z,3.70
2023-04-11T20:26:06.959Z,3.20
2023-04-11T20:28:43.363Z,5.50
2023-04-11T20:31:15.949Z,3.70
2023-04-11T20:33:51.716Z,4.40
2023-04-11T20:36:27.804Z,2.40
2023-04-11T20:39:03.423Z,2.20
2023-04-11T20:41:35.996Z,2.20
2023-04-11T20:44:08.868Z,2.50
2023-04-11T20:46:42.444Z,1.70
2023-04-11T20:51:45.654Z,1.50
2023-04-11T20:54:18.399Z,2.00
2023-04-11T20:56:52.762Z,1.60
2023-04-11T20:59:30.419Z,1.40
2023-04-11T21:02:03.174Z,1.60
2023-04-11T21:04:35.982Z,1.70
2023-04-11T21:07:08.848Z,1.80
2023-04-11T21:09:42.979Z,2.90
2023-04-11T21:12:20.131Z,1.50
2023-04-11T21:14:55.049Z,1.50
2023-04-11T21:17:34.523Z,2.10
2023-04-11T21:20:10.763Z,4.80
2023-04-11T21:22:43.864Z,2.10
2023-04-11T21:25:19.793Z,2.20
2023-04-11T21:27:57.377Z,2.30
2023-04-11T21:30:33.392Z,2.10
2023-04-11T21:33:07.542Z,1.90
2023-04-11T21:35:40.711Z,1.90
2023-04-11T21:38:13.669Z,2.20
2023-04-11T21:40:47.906Z,2.30
2023-04-11T21:43:20.782Z,1.70
2023-04-11T21:45:53.428Z,1.80
2023-04-11T21:48:26.008Z,4.50
2023-04-11T21:50:58.724Z,2.20
2023-04-11T21:53:31.335Z,2.00
2023-04-11T21:56:06.764Z,2.20
2023-04-11T21:58:39.612Z,1.80
2023-04-11T22:01:13.444Z,2.00
2023-04-11T22:03:46.250Z,2.80
2023-04-11T22:06:19.619Z,2.30
2023-04-11T22:08:52.727Z,2.30
2023-04-11T22:11:25.295Z,1.90
2023-04-11T22:13:59.154Z,2.80
2023-04-11T22:16:33.965Z,2.60
2023-04-11T22:19:07.665Z,2.00
2023-04-11T22:21:40.483Z,3.00
2023-04-11T22:24:13.605Z,2.00
2023-04-11T22:26:49.411Z,1.90
2023-04-11T22:29:22.622Z,2.70
2023-04-11T22:31:55.765Z,2.40
2023-04-11T22:34:28.785Z,2.80
2023-04-11T22:37:01.781Z,2.90
2023-04-11T22:39:34.913Z,3.20
2023-04-11T22:42:09.173Z,3.00
2023-04-11T22:44:42.597Z,2.80
2023-04-11T22:47:17.026Z,3.40
2023-04-11T22:49:50.869Z,4.50
2023-04-11T22:52:26.342Z,4.40
2023-04-11T22:54:58.991Z,3.80
2023-04-11T22:57:31.582Z,3.40
2023-04-11T23:00:07.893Z,5.80
2023-04-11T23:02:42.522Z,4.70
2023-04-11T23:05:15.180Z,6.90
2023-04-11T23:07:48.219Z,4.10
2023-04-11T23:10:21.620Z,5.00
2023-04-11T23:12:54.337Z,5.40
2023-04-11T23:15:27.135Z,5.60
2023-04-11T23:18:00.018Z,4.90
2023-04-11T23:20:32.832Z,5.30
2023-04-11T23:23:06.640Z,4.90
2023-04-11T23:25:43.655Z,5.20
2023-04-11T23:28:16.257Z,5.20
2023-04-11T23:30:50.872Z,5.20
2023-04-11T23:33:25.984Z,7.00
2023-04-11T23:35:58.823Z,5.50
2023-04-11T23:38:32.288Z,6.10
2023-04-11T23:41:05.634Z,5.30
2023-04-11T23:43:38.474Z,5.00
2023-04-11T23:46:11.608Z,7.40
2023-04-11T23:48:44.503Z,5.70
2023-04-11T23:51:17.700Z,6.70
2023-04-11T23:56:23.658Z,7.70
2023-04-11T23:58:56.410Z,7.20
